createdAt,value
2022-09-06T00:01:52.274Z,11.43
2022-09-06T00:04:19.125Z,12.43
2022-09-06T00:06:46.071Z,12.82
2022-09-06T00:09:12.930Z,14.18
2022-09-06T00:11:40.089Z,12.98
2022-09-06T00:14:06.997Z,12.82
2022-09-06T00:16:34.909Z,13.77
2022-09-06T00:19:01.832Z,15.00
2022-09-06T00:21:29.858Z,12.75
2022-09-06T00:23:56.830Z,12.93
2022-09-06T00:26:23.990Z,12.57
2022-09-06T00:28:50.874Z,17.60
2022-09-06T00:31:19.707Z,14.25
2022-09-06T00:33:47.813Z,16.55
2022-09-06T00:36:14.738Z,13.70
2022-09-06T00:38:41.722Z,13.48
2022-09-06T00:41:09.603Z,12.87
2022-09-06T00:43:36.672Z,15.10
2022-09-06T00:46:03.744Z,13.68
2022-09-06T00:48:30.704Z,14.68
2022-09-06T00:51:01.969Z,11.93
2022-09-06T00:53:28.936Z,13.53
2022-09-06T00:55:55.931Z,13.43
2022-09-06T00:58:23.213Z,11.43
2022-09-06T01:00:50.105Z,17.42
2022-09-06T01:03:16.922Z,16.08
2022-09-06T01:05:54.556Z,13.83
2022-09-06T01:08:31.038Z,13.65
2022-09-06T01:11:03.985Z,15.48
2022-09-06T01:13:49.530Z,16.83
2022-09-06T01:16:31.803Z,15.18
2022-09-06T01:19:35.098Z,16.43
2022-09-06T01:22:07.889Z,16.35
2022-09-06T01:24:52.890Z,16.13
2022-09-06T01:27:33.012Z,16.90
2022-09-06T01:30:07.120Z,17.92
2022-09-06T01:33:11.434Z,16.13
2022-09-06T01:35:43.968Z,17.95
2022-09-06T01:38:10.933Z,16.52
2022-09-06T01:40:37.857Z,17.63
2022-09-06T01:43:10.671Z,17.88
2022-09-06T01:46:15.046Z,15.80
2022-09-06T01:49:19.487Z,17.63
2022-09-06T01:51:49.351Z,17.02
2022-09-06T01:54:51.715Z,17.40
2022-09-06T01:57:18.468Z,15.77
2022-09-06T02:00:09.201Z,15.23
2022-09-06T02:03:09.649Z,16.88
2022-09-06T02:05:41.467Z,14.60
2022-09-06T02:08:34.709Z,15.10
2022-09-06T02:11:02.990Z,16.13
2022-09-06T02:13:32.373Z,13.80
2022-09-06T02:16:02.051Z,13.73
2022-09-06T02:18:38.869Z,12.77
2022-09-06T02:21:05.948Z,15.50
2022-09-06T02:23:35.244Z,18.20
2022-09-06T02:26:08.413Z,13.43
2022-09-06T02:28:35.293Z,14.38
2022-09-06T02:31:04.571Z,14.63
2022-09-06T02:33:32.119Z,14.10
2022-09-06T02:36:03.929Z,15.63
2022-09-06T02:38:30.791Z,13.23
2022-09-06T02:40:57.712Z,13.27
2022-09-06T02:43:24.587Z,13.77
2022-09-06T02:45:51.567Z,14.45
2022-09-06T02:48:18.428Z,15.10
2022-09-06T02:50:45.257Z,14.50
2022-09-06T02:53:13.171Z,13.95
2022-09-06T02:55:40.231Z,13.35
2022-09-06T02:58:07.988Z,13.07
2022-09-06T03:00:35.190Z,13.38
2022-09-06T03:03:02.112Z,12.77
2022-09-06T03:05:29.069Z,11.68
2022-09-06T03:07:56.317Z,13.25
2022-09-06T03:10:23.347Z,10.75
2022-09-06T03:12:50.253Z,13.25
2022-09-06T03:15:17.353Z,11.57
2022-09-06T03:17:44.411Z,12.63
2022-09-06T03:20:11.514Z,9.48
2022-09-06T03:22:39.458Z,11.25
2022-09-06T03:25:10.051Z,9.77
2022-09-06T03:27:37.012Z,11.00
2022-09-06T03:30:05.392Z,10.27
2022-09-06T03:32:32.309Z,10.07
2022-09-06T03:34:59.685Z,9.38
2022-09-06T03:37:26.732Z,9.90
2022-09-06T03:39:53.760Z,8.97
2022-09-06T03:42:20.812Z,13.85
2022-09-06T03:44:47.699Z,11.50
2022-09-06T03:47:18.774Z,11.93
2022-09-06T03:49:46.893Z,13.30
2022-09-06T03:52:14.231Z,10.07
2022-09-06T03:54:41.127Z,12.35
2022-09-06T03:57:08.067Z,13.07
2022-09-06T03:59:34.907Z,12.40
2022-09-06T04:02:02.108Z,11.88
2022-09-06T04:04:29.068Z,13.93
2022-09-06T04:06:55.954Z,11.20
2022-09-06T04:09:22.867Z,13.98
2022-09-06T04:11:49.692Z,11.60
2022-09-06T04:14:16.538Z,12.07
2022-09-06T04:16:43.489Z,11.47
2022-09-06T04:19:10.412Z,11.77
2022-09-06T04:21:37.311Z,13.50
2022-09-06T04:24:04.299Z,10.10
2022-09-06T04:26:31.130Z,11.20
2022-09-06T04:28:58.153Z,11.93
2022-09-06T04:31:25.069Z,11.38
2022-09-06T04:33:52.085Z,9.38
2022-09-06T04:36:18.971Z,9.43
2022-09-06T04:38:45.868Z,10.35
2022-09-06T04:41:15.878Z,10.83
2022-09-06T04:43:42.935Z,10.70
2022-09-06T04:46:11.977Z,11.50
2022-09-06T04:48:38.908Z,12.38
2022-09-06T04:51:05.913Z,11.27
2022-09-06T04:53:33.299Z,10.63
2022-09-06T04:56:00.231Z,11.77
2022-09-06T04:58:27.316Z,11.60
2022-09-06T05:00:55.160Z,11.13
2022-09-06T05:03:22.129Z,10.68
2022-09-06T05:05:49.077Z,10.10
2022-09-06T05:08:15.993Z,10.15
2022-09-06T05:10:42.830Z,10.45
2022-09-06T05:13:09.669Z,11.10
2022-09-06T05:15:36.599Z,9.40
2022-09-06T05:18:06.795Z,9.40
2022-09-06T05:20:33.756Z,9.60
2022-09-06T05:23:01.629Z,6.82
2022-09-06T05:25:28.527Z,6.95
2022-09-06T05:27:55.470Z,7.53
2022-09-06T05:30:22.466Z,6.33
2022-09-06T05:32:49.354Z,6.35
2022-09-06T05:35:16.308Z,5.65
2022-09-06T05:37:43.211Z,6.75
2022-09-06T05:40:10.481Z,6.63
2022-09-06T05:42:37.456Z,8.13
2022-09-06T05:45:06.710Z,7.05
2022-09-06T05:47:35.578Z,6.05
2022-09-06T05:50:02.570Z,7.38
2022-09-06T05:52:29.630Z,6.47
2022-09-06T05:54:56.572Z,8.33
2022-09-06T05:57:23.529Z,6.78
2022-09-06T05:59:50.477Z,5.88
2022-09-06T06:02:17.461Z,7.05
2022-09-06T06:04:44.434Z,6.43
2022-09-06T06:07:11.297Z,6.80
2022-09-06T06:09:38.238Z,4.97
2022-09-06T06:12:05.326Z,5.05
2022-09-06T06:14:32.233Z,5.40
2022-09-06T06:16:59.159Z,3.55
2022-09-06T06:19:26.812Z,5.33
2022-09-06T06:21:53.752Z,3.80
2022-09-06T06:24:20.632Z,3.92
2022-09-06T06:26:47.513Z,3.13
2022-09-06T06:29:14.631Z,3.25
2022-09-06T06:31:41.684Z,3.13
2022-09-06T06:34:08.821Z,3.45
2022-09-06T06:36:36.198Z,4.72
2022-09-06T06:39:04.600Z,3.67
2022-09-06T06:41:32.112Z,3.38
2022-09-06T06:44:01.010Z,4.67
2022-09-06T06:46:29.840Z,5.22
2022-09-06T06:48:56.754Z,3.17
2022-09-06T06:51:25.435Z,3.70
2022-09-06T06:53:52.732Z,4.28
2022-09-06T06:56:24.867Z,4.10
2022-09-06T06:58:53.137Z,3.90
2022-09-06T07:01:20.773Z,4.50
2022-09-06T07:03:47.932Z,3.25
2022-09-06T07:06:15.019Z,3.20
2022-09-06T07:08:42.219Z,2.77
2022-09-06T07:11:10.514Z,3.03
2022-09-06T07:13:37.554Z,2.88
2022-09-06T07:16:08.901Z,2.58
2022-09-06T07:18:37.794Z,3.92
2022-09-06T07:24:07.933Z,2.42
2022-09-06T07:26:36.634Z,3.20
2022-09-06T07:29:04.600Z,1.90
2022-09-06T07:34:20.766Z,2.40
2022-09-06T07:36:48.581Z,1.95
2022-09-06T07:39:15.580Z,2.90
2022-09-06T07:41:43.134Z,3.78
2022-09-06T07:44:10.379Z,2.53
2022-09-06T07:46:37.509Z,3.10
2022-09-06T07:49:05.524Z,2.35
2022-09-06T07:51:32.687Z,2.05
2022-09-06T07:54:26.169Z,2.17
2022-09-06T07:56:46.791Z,2.65
2022-09-06T07:59:13.801Z,6.20
2022-09-06T08:01:40.973Z,2.75
2022-09-06T08:04:09.783Z,3.17
2022-09-06T08:09:25.257Z,2.08
2022-09-06T08:11:52.950Z,2.80
2022-09-06T08:14:20.484Z,2.75
2022-09-06T08:16:47.496Z,2.70
2022-09-06T08:19:14.577Z,2.03
2022-09-06T08:21:41.547Z,2.80
2022-09-06T08:24:09.855Z,2.87
2022-09-06T08:26:40.317Z,3.65
2022-09-06T08:29:08.884Z,2.78
2022-09-06T08:31:37.599Z,2.63
2022-09-06T08:34:04.539Z,2.00
2022-09-06T08:36:31.536Z,1.60
2022-09-06T08:39:03.072Z,2.45
2022-09-06T08:42:07.484Z,1.90
2022-09-06T08:47:21.978Z,2.35
2022-09-06T08:49:53.034Z,1.30
2022-09-06T08:52:27.855Z,3.45
2022-09-06T08:55:13.219Z,2.72
2022-09-06T08:58:05.019Z,1.30
2022-09-06T09:00:32.734Z,2.25
2022-09-06T09:03:17.056Z,3.13
2022-09-06T09:05:44.159Z,3.75
2022-09-06T09:08:24.852Z,3.05
2022-09-06T09:10:59.031Z,3.13
2022-09-06T09:13:47.798Z,1.98
2022-09-06T09:16:15.163Z,2.43
2022-09-06T09:18:55.773Z,2.80
2022-09-06T09:21:28.076Z,2.47
2022-09-06T09:24:01.599Z,3.35
2022-09-06T09:26:31.012Z,2.35
2022-09-06T09:29:09.492Z,2.00
2022-09-06T09:31:39.129Z,1.92
2022-09-06T09:34:06.399Z,2.25
2022-09-06T09:36:33.512Z,2.30
2022-09-06T09:39:00.413Z,2.83
2022-09-06T09:41:34.040Z,3.77
2022-09-06T09:44:20.791Z,3.42
2022-09-06T09:46:47.715Z,2.30
2022-09-06T09:49:29.225Z,3.50
2022-09-06T09:52:06.805Z,2.55
2022-09-06T09:54:36.903Z,3.77
2022-09-06T09:57:11.562Z,12.43
2022-09-06T09:59:48.153Z,13.70
2022-09-06T10:02:20.855Z,5.28
2022-09-06T10:04:49.912Z,8.68
2022-09-06T10:07:18.813Z,2.43
2022-09-06T10:09:47.775Z,1.58
2022-09-06T10:12:35.667Z,2.05
2022-09-06T10:15:06.860Z,1.42
2022-09-06T10:17:39.392Z,2.45
2022-09-06T10:20:10.778Z,2.87
2022-09-06T10:22:46.563Z,9.18
2022-09-06T10:25:32.111Z,22.65
2022-09-06T10:28:19.971Z,6.18
2022-09-06T10:31:08.623Z,3.20
2022-09-06T10:34:02.699Z,10.20
2022-09-06T10:36:37.970Z,4.05
2022-09-06T10:39:25.068Z,2.17
2022-09-06T10:42:25.653Z,18.77
2022-09-06T10:45:17.031Z,6.97
2022-09-06T10:48:03.070Z,2.83
2022-09-06T10:50:50.731Z,2.30
2022-09-06T10:53:39.378Z,2.45
2022-09-06T10:56:12.969Z,5.32
2022-09-06T11:01:45.141Z,1.60
2022-09-06T11:04:20.294Z,3.80
2022-09-06T11:06:51.236Z,2.63
2022-09-06T11:09:41.655Z,3.10
2022-09-06T11:12:31.993Z,3.63
2022-09-06T11:15:01.342Z,3.27
2022-09-06T11:17:35.608Z,2.80
2022-09-06T11:20:32.573Z,3.85
2022-09-06T11:23:18.233Z,2.53
2022-09-06T11:26:19.221Z,1.98
2022-09-06T11:29:02.052Z,4.50
2022-09-06T11:34:21.112Z,2.88
2022-09-06T11:36:50.175Z,2.63
2022-09-06T11:42:49.347Z,2.50
2022-09-06T11:45:21.976Z,2.70
2022-09-06T11:47:52.313Z,2.13
2022-09-06T11:50:22.061Z,2.00
2022-09-06T11:52:49.633Z,2.05
2022-09-06T11:55:22.616Z,2.20
2022-09-06T11:57:56.066Z,4.18
2022-09-06T12:00:24.458Z,2.15
2022-09-06T12:02:52.158Z,2.03
2022-09-06T12:05:26.969Z,2.38
2022-09-06T12:08:31.834Z,2.20
2022-09-06T12:11:03.837Z,2.17
2022-09-06T12:13:52.330Z,2.42
2022-09-06T12:16:19.375Z,3.00
2022-09-06T12:18:49.285Z,3.75
2022-09-06T12:21:39.352Z,2.73
2022-09-06T12:24:08.030Z,2.45
2022-09-06T12:27:08.291Z,2.70
2022-09-06T12:29:35.170Z,2.05
2022-09-06T12:32:02.192Z,4.80
2022-09-06T12:34:33.874Z,3.33
2022-09-06T12:37:01.796Z,4.70
2022-09-06T12:39:28.799Z,4.93
2022-09-06T12:41:57.693Z,1.95
2022-09-06T12:44:29.377Z,4.68
2022-09-06T12:46:56.272Z,3.07
2022-09-06T12:49:23.613Z,2.90
2022-09-06T12:51:50.553Z,1.77
2022-09-06T12:54:20.359Z,1.75
2022-09-06T12:56:47.272Z,2.72
2022-09-06T12:59:25.256Z,2.30
2022-09-06T13:02:10.885Z,1.92
2022-09-06T13:04:40.136Z,2.40
2022-09-06T13:07:07.000Z,2.70
2022-09-06T13:09:33.893Z,2.50
2022-09-06T13:12:08.992Z,3.40
2022-09-06T13:14:36.030Z,3.22
2022-09-06T13:17:03.072Z,3.63
2022-09-06T13:19:35.095Z,2.65
2022-09-06T13:22:03.891Z,2.60
2022-09-06T13:24:33.751Z,2.27
2022-09-06T13:27:01.037Z,2.70
2022-09-06T13:29:31.656Z,1.95
2022-09-06T13:31:59.637Z,2.13
2022-09-06T13:34:28.139Z,3.28
2022-09-06T13:37:15.977Z,3.97
2022-09-06T13:39:46.485Z,3.17
2022-09-06T13:42:31.639Z,2.47
2022-09-06T13:45:01.980Z,2.22
2022-09-06T13:47:29.748Z,3.03
2022-09-06T13:49:56.693Z,2.37
2022-09-06T13:52:23.675Z,2.55
2022-09-06T13:54:50.590Z,3.08
2022-09-06T13:57:22.189Z,3.85
2022-09-06T13:59:50.450Z,4.32
2022-09-06T14:02:19.617Z,3.13
2022-09-06T14:04:46.553Z,2.78
2022-09-06T14:07:13.479Z,2.42
2022-09-06T14:09:40.348Z,4.15
2022-09-06T14:12:07.277Z,2.85
2022-09-06T14:14:34.431Z,2.07
2022-09-06T14:17:01.753Z,1.92
2022-09-06T14:19:29.111Z,2.50
2022-09-06T14:21:55.997Z,2.10
2022-09-06T14:24:23.018Z,2.10
2022-09-06T14:26:50.052Z,2.40
2022-09-06T14:29:17.007Z,3.25
2022-09-06T14:31:43.987Z,2.92
2022-09-06T14:34:10.939Z,2.10
2022-09-06T14:36:37.854Z,2.70
2022-09-06T14:39:04.902Z,2.50
2022-09-06T14:41:31.927Z,2.53
2022-09-06T14:43:59.071Z,2.75
2022-09-06T14:46:26.907Z,2.33
2022-09-06T14:49:04.712Z,2.85
2022-09-06T14:51:31.664Z,2.33
2022-09-06T14:54:01.521Z,2.20
2022-09-06T14:56:28.459Z,2.70
2022-09-06T14:58:57.548Z,2.85
2022-09-06T15:01:31.889Z,2.35
2022-09-06T15:04:05.354Z,2.33
2022-09-06T15:06:33.510Z,2.67
2022-09-06T15:09:00.429Z,2.25
2022-09-06T15:11:48.581Z,5.13
2022-09-06T15:14:23.140Z,2.05
2022-09-06T15:16:55.916Z,1.83
2022-09-06T15:19:24.681Z,3.63
2022-09-06T15:21:51.615Z,2.05
2022-09-06T15:24:18.530Z,2.00
2022-09-06T15:26:46.105Z,3.35
2022-09-06T15:29:13.451Z,2.53
2022-09-06T15:31:40.909Z,3.85
2022-09-06T15:34:09.078Z,2.88
2022-09-06T15:36:36.754Z,2.10
2022-09-06T15:39:04.417Z,3.53
2022-09-06T15:41:32.519Z,4.47
2022-09-06T15:44:01.574Z,4.40
2022-09-06T15:46:46.821Z,2.63
2022-09-06T15:49:32.529Z,2.38
2022-09-06T15:52:01.070Z,2.60
2022-09-06T15:54:46.952Z,3.60
2022-09-06T15:57:14.536Z,2.30
2022-09-06T15:59:41.410Z,2.42
2022-09-06T16:02:09.031Z,2.63
2022-09-06T16:04:35.970Z,2.58
2022-09-06T16:07:02.900Z,3.10
2022-09-06T16:09:29.816Z,3.33
2022-09-06T16:11:56.669Z,5.13
2022-09-06T16:14:23.627Z,2.83
2022-09-06T16:19:32.884Z,4.03
2022-09-06T16:22:00.856Z,2.60
2022-09-06T16:24:27.832Z,4.68
2022-09-06T16:26:54.851Z,2.42
2022-09-06T16:29:21.824Z,3.42
2022-09-06T16:31:48.858Z,3.27
2022-09-06T16:34:15.957Z,3.40
2022-09-06T16:36:42.872Z,3.50
2022-09-06T16:39:10.898Z,4.57
2022-09-06T16:41:46.228Z,2.83
2022-09-06T16:44:17.025Z,13.27
2022-09-06T16:46:47.958Z,4.30
2022-09-06T16:49:17.106Z,4.38
2022-09-06T16:51:44.420Z,2.90
2022-09-06T16:54:12.685Z,2.95
2022-09-06T16:56:40.169Z,4.17
2022-09-06T16:59:08.115Z,4.05
2022-09-06T17:01:36.411Z,4.97
2022-09-06T17:04:04.021Z,7.35
2022-09-06T17:06:31.193Z,4.32
2022-09-06T17:09:00.818Z,3.20
2022-09-06T17:11:28.170Z,8.07
2022-09-06T17:13:55.621Z,5.47
2022-09-06T17:16:40.919Z,6.97
2022-09-06T17:19:09.094Z,4.18
2022-09-06T17:21:35.945Z,5.97
2022-09-06T17:24:06.145Z,9.40
2022-09-06T17:26:34.722Z,7.85
2022-09-06T17:29:01.762Z,11.45
2022-09-06T17:31:29.137Z,10.85
2022-09-06T17:33:56.131Z,9.63
2022-09-06T17:36:24.696Z,7.22
2022-09-06T17:38:53.505Z,7.95
2022-09-06T17:41:22.640Z,8.32
2022-09-06T17:43:49.572Z,8.80
2022-09-06T17:46:16.572Z,7.23
2022-09-06T17:48:43.731Z,6.80
2022-09-06T17:51:11.338Z,7.32
2022-09-06T17:53:38.393Z,7.75
2022-09-06T17:56:06.136Z,7.10
2022-09-06T17:58:33.207Z,5.93
2022-09-06T18:01:08.806Z,8.65
2022-09-06T18:03:35.816Z,8.85
2022-09-06T18:06:07.957Z,7.55
2022-09-06T18:08:35.813Z,8.43
2022-09-06T18:11:33.108Z,9.80
2022-09-06T18:14:01.746Z,7.25
2022-09-06T18:16:29.289Z,9.00
2022-09-06T18:19:01.331Z,8.32
2022-09-06T18:21:29.531Z,9.20
2022-09-06T18:23:56.694Z,10.17
2022-09-06T18:26:23.956Z,8.30
2022-09-06T18:28:51.131Z,9.00
2022-09-06T18:31:19.285Z,9.50
2022-09-06T18:33:46.235Z,7.72
2022-09-06T18:36:13.515Z,10.10
2022-09-06T18:38:42.761Z,10.23
2022-09-06T18:41:10.188Z,9.70
2022-09-06T18:43:40.411Z,9.48
2022-09-06T18:46:12.870Z,7.90
2022-09-06T18:48:40.069Z,8.63
2022-09-06T18:51:11.854Z,8.40
2022-09-06T18:53:44.021Z,8.10
2022-09-06T18:56:12.268Z,8.68
2022-09-06T18:58:39.209Z,12.43
2022-09-06T19:01:08.182Z,11.00
2022-09-06T19:03:36.022Z,9.73
2022-09-06T19:06:04.109Z,9.63
2022-09-06T19:08:31.110Z,10.13
2022-09-06T19:11:01.853Z,10.98
2022-09-06T19:13:32.611Z,10.37
2022-09-06T19:15:59.709Z,9.20
2022-09-06T19:18:27.244Z,12.93
2022-09-06T19:21:01.191Z,12.00
2022-09-06T19:23:28.816Z,10.02
2022-09-06T19:26:00.308Z,11.07
2022-09-06T19:28:27.547Z,9.05
2022-09-06T19:30:55.052Z,10.75
2022-09-06T19:33:21.911Z,9.98
2022-09-06T19:36:10.443Z,9.30
2022-09-06T19:39:01.552Z,10.73
2022-09-06T19:41:25.678Z,9.68
2022-09-06T19:43:53.375Z,9.98
2022-09-06T19:46:20.504Z,11.93
2022-09-06T19:48:49.100Z,9.05
2022-09-06T19:51:16.309Z,12.83
2022-09-06T19:53:44.351Z,10.52
2022-09-06T19:56:15.278Z,9.00
2022-09-06T19:58:42.795Z,8.85
2022-09-06T20:01:10.336Z,8.32
2022-09-06T20:03:38.236Z,9.07
2022-09-06T20:06:08.234Z,7.70
2022-09-06T20:08:35.984Z,6.85
2022-09-06T20:11:03.375Z,6.57
2022-09-06T20:13:30.479Z,8.43
2022-09-06T20:15:57.446Z,8.30
2022-09-06T20:18:25.736Z,6.47
2022-09-06T20:20:56.236Z,6.97
2022-09-06T20:23:23.213Z,10.57
2022-09-06T20:26:08.050Z,7.18
2022-09-06T20:28:35.013Z,6.90
2022-09-06T20:31:09.726Z,6.38
2022-09-06T20:33:36.893Z,7.40
2022-09-06T20:36:05.582Z,8.05
2022-09-06T20:38:33.885Z,9.07
2022-09-06T20:41:04.886Z,9.17
2022-09-06T20:43:34.429Z,8.52
2022-09-06T20:46:04.265Z,8.88
2022-09-06T20:48:32.780Z,9.75
2022-09-06T20:51:01.959Z,7.88
2022-09-06T20:53:29.853Z,5.70
2022-09-06T20:55:58.124Z,7.07
2022-09-06T20:58:25.372Z,6.93
2022-09-06T21:00:52.429Z,8.07
2022-09-06T21:03:19.425Z,7.30
2022-09-06T21:05:46.269Z,6.77
2022-09-06T21:08:13.375Z,6.40
2022-09-06T21:10:40.232Z,8.07
2022-09-06T21:13:07.190Z,7.90
2022-09-06T21:15:34.884Z,6.68
2022-09-06T21:18:02.382Z,7.90
2022-09-06T21:20:30.203Z,8.68
2022-09-06T21:22:57.261Z,6.90
2022-09-06T21:25:24.104Z,8.07
2022-09-06T21:27:55.532Z,8.48
2022-09-06T21:30:22.702Z,9.27
2022-09-06T21:32:49.621Z,8.13
2022-09-06T21:35:16.449Z,7.78
2022-09-06T21:37:43.362Z,8.13
2022-09-06T21:40:10.347Z,7.80
2022-09-06T21:42:37.282Z,6.50
2022-09-06T21:45:04.380Z,7.35
2022-09-06T21:47:31.523Z,7.18
2022-09-06T21:49:58.374Z,6.93
2022-09-06T21:52:25.230Z,9.35
2022-09-06T21:54:52.091Z,6.70
2022-09-06T21:57:18.859Z,9.63
2022-09-06T21:59:45.667Z,7.28
2022-09-06T22:02:12.740Z,7.63
2022-09-06T22:04:40.227Z,6.80
2022-09-06T22:07:07.020Z,6.37
2022-09-06T22:09:33.839Z,7.68
2022-09-06T22:12:00.680Z,6.07
2022-09-06T22:14:27.477Z,7.25
2022-09-06T22:16:54.363Z,6.40
2022-09-06T22:19:21.156Z,5.97
2022-09-06T22:21:48.000Z,7.47
2022-09-06T22:24:15.783Z,7.18
2022-09-06T22:26:43.135Z,8.65
2022-09-06T22:29:10.899Z,6.63
2022-09-06T22:31:37.834Z,8.20
2022-09-06T22:34:04.921Z,8.35
2022-09-06T22:36:31.873Z,7.13
2022-09-06T22:38:59.149Z,7.13
2022-09-06T22:41:27.592Z,7.10
2022-09-06T22:43:54.580Z,6.37
2022-09-06T22:46:21.520Z,7.13
2022-09-06T22:48:49.308Z,9.00
2022-09-06T22:51:16.365Z,7.30
2022-09-06T22:53:43.199Z,8.15
2022-09-06T22:56:10.060Z,7.93
2022-09-06T22:58:36.821Z,10.30
2022-09-06T23:01:11.796Z,9.40
2022-09-06T23:03:38.924Z,8.57
2022-09-06T23:06:05.989Z,8.80
2022-09-06T23:08:32.916Z,8.47
2022-09-06T23:11:07.044Z,7.75
2022-09-06T23:13:33.961Z,7.78
2022-09-06T23:16:05.692Z,9.40
2022-09-06T23:18:32.588Z,9.60
2022-09-06T23:21:04.490Z,7.33
2022-09-06T23:23:31.288Z,8.32
2022-09-06T23:26:02.708Z,8.48
2022-09-06T23:28:29.627Z,9.45
2022-09-06T23:30:56.541Z,8.77
2022-09-06T23:33:23.396Z,8.93
2022-09-06T23:35:54.389Z,7.85
2022-09-06T23:38:21.265Z,7.93
2022-09-06T23:40:48.100Z,9.90
2022-09-06T23:43:14.946Z,7.78
2022-09-06T23:45:41.840Z,9.70
2022-09-06T23:48:08.626Z,9.60
2022-09-06T23:50:35.482Z,9.93
2022-09-06T23:53:02.270Z,9.13
2022-09-06T23:55:29.056Z,8.75
2022-09-06T23:57:56.092Z,10.37
